sensor_id;sensor_type;location;lat;lon;timestamp;P1;durP1;ratioP1;P2;durP2;ratioP2
58208;SDS011;44006;52.028;4.696;2023-05-31T00:00:38;12.93;;;4.90;;
58208;SDS011;44006;52.028;4.696;2023-05-31T00:03:03;8.70;;;4.63;;
58208;SDS011;44006;52.028;4.696;2023-05-31T00:05:28;11.00;;;4.40;;
58208;SDS011;44006;52.028;4.696;2023-05-31T00:07:53;9.77;;;4.53;;
58208;SDS011;44006;52.028;4.696;2023-05-31T00:10:19;8.32;;;5.47;;
58208;SDS011;44006;52.028;4.696;2023-05-31T00:12:44;7.03;;;4.68;;
58208;SDS011;44006;52.028;4.696;2023-05-31T00:15:10;7.10;;;4.57;;
58208;SDS011;44006;52.028;4.696;2023-05-31T00:17:35;9.60;;;4.68;;
58208;SDS011;44006;52.028;4.696;2023-05-31T00:20:00;8.70;;;4.40;;
58208;SDS011;44006;52.028;4.696;2023-05-31T00:22:25;6.82;;;4.50;;
58208;SDS011;44006;52.028;4.696;2023-05-31T00:24:50;7.33;;;4.60;;
58208;SDS011;44006;52.028;4.696;2023-05-31T00:27:16;8.68;;;5.25;;
58208;SDS011;44006;52.028;4.696;2023-05-31T00:29:41;9.52;;;4.90;;
58208;SDS011;44006;52.028;4.696;2023-05-31T00:32:06;7.73;;;4.57;;
58208;SDS011;44006;52.028;4.696;2023-05-31T00:34:32;10.02;;;4.88;;
58208;SDS011;44006;52.028;4.696;2023-05-31T00:36:57;6.85;;;4.35;;
58208;SDS011;44006;52.028;4.696;2023-05-31T00:39:22;9.00;;;4.53;;
58208;SDS011;44006;52.028;4.696;2023-05-31T00:41:48;9.43;;;4.32;;
58208;SDS011;44006;52.028;4.696;2023-05-31T00:44:13;8.80;;;4.23;;
58208;SDS011;44006;52.028;4.696;2023-05-31T00:46:39;7.78;;;4.10;;
58208;SDS011;44006;52.028;4.696;2023-05-31T00:49:05;7.53;;;4.25;;
58208;SDS011;44006;52.028;4.696;2023-05-31T00:51:31;9.55;;;4.70;;
58208;SDS011;44006;52.028;4.696;2023-05-31T00:53:57;8.38;;;4.78;;
58208;SDS011;44006;52.028;4.696;2023-05-31T00:56:22;9.55;;;4.93;;
58208;SDS011;44006;52.028;4.696;2023-05-31T00:58:48;7.15;;;4.43;;
58208;SDS011;44006;52.028;4.696;2023-05-31T01:01:13;7.90;;;5.03;;
58208;SDS011;44006;52.028;4.696;2023-05-31T01:03:39;9.23;;;4.78;;
58208;SDS011;44006;52.028;4.696;2023-05-31T01:06:05;9.32;;;5.05;;
58208;SDS011;44006;52.028;4.696;2023-05-31T01:08:30;9.38;;;4.72;;
58208;SDS011;44006;52.028;4.696;2023-05-31T01:10:57;8.82;;;4.68;;
58208;SDS011;44006;52.028;4.696;2023-05-31T01:13:34;9.43;;;4.72;;
58208;SDS011;44006;52.028;4.696;2023-05-31T01:16:06;8.27;;;4.85;;
58208;SDS011;44006;52.028;4.696;2023-05-31T01:18:34;9.98;;;5.40;;
58208;SDS011;44006;52.028;4.696;2023-05-31T01:21:01;8.55;;;5.15;;
58208;SDS011;44006;52.028;4.696;2023-05-31T01:28:52;10.18;;;4.90;;
58208;SDS011;44006;52.028;4.696;2023-05-31T01:31:20;7.72;;;4.80;;
58208;SDS011;44006;52.028;4.696;2023-05-31T01:33:45;9.15;;;4.53;;
58208;SDS011;44006;52.028;4.696;2023-05-31T01:36:11;9.90;;;5.57;;
58208;SDS011;44006;52.028;4.696;2023-05-31T01:38:37;8.55;;;5.45;;
58208;SDS011;44006;52.028;4.696;2023-05-31T01:41:02;8.98;;;5.03;;
58208;SDS011;44006;52.028;4.696;2023-05-31T01:43:31;9.20;;;4.78;;
58208;SDS011;44006;52.028;4.696;2023-05-31T01:45:56;9.38;;;4.90;;
58208;SDS011;44006;52.028;4.696;2023-05-31T01:48:22;8.85;;;5.00;;
58208;SDS011;44006;52.028;4.696;2023-05-31T01:50:48;9.43;;;5.43;;
58208;SDS011;44006;52.028;4.696;2023-05-31T01:53:14;8.65;;;4.70;;
58208;SDS011;44006;52.028;4.696;2023-05-31T01:55:39;10.45;;;5.32;;
58208;SDS011;44006;52.028;4.696;2023-05-31T01:58:07;9.57;;;5.80;;
58208;SDS011;44006;52.028;4.696;2023-05-31T02:00:33;7.95;;;5.57;;
58208;SDS011;44006;52.028;4.696;2023-05-31T02:02:59;10.35;;;5.47;;
58208;SDS011;44006;52.028;4.696;2023-05-31T02:05:24;8.73;;;5.25;;
58208;SDS011;44006;52.028;4.696;2023-05-31T02:07:50;7.38;;;4.72;;
58208;SDS011;44006;52.028;4.696;2023-05-31T02:10:16;8.35;;;4.75;;
58208;SDS011;44006;52.028;4.696;2023-05-31T02:12:41;13.40;;;5.50;;
58208;SDS011;44006;52.028;4.696;2023-05-31T02:15:07;10.93;;;5.43;;
58208;SDS011;44006;52.028;4.696;2023-05-31T02:17:40;13.88;;;5.32;;
58208;SDS011;44006;52.028;4.696;2023-05-31T02:20:13;8.77;;;5.03;;
58208;SDS011;44006;52.028;4.696;2023-05-31T02:25:04;11.27;;;5.88;;
58208;SDS011;44006;52.028;4.696;2023-05-31T02:27:30;12.80;;;5.55;;
58208;SDS011;44006;52.028;4.696;2023-05-31T02:29:55;12.30;;;5.22;;
58208;SDS011;44006;52.028;4.696;2023-05-31T02:32:20;8.10;;;5.40;;
58208;SDS011;44006;52.028;4.696;2023-05-31T02:34:46;8.90;;;5.10;;
58208;SDS011;44006;52.028;4.696;2023-05-31T02:37:11;10.73;;;5.07;;
58208;SDS011;44006;52.028;4.696;2023-05-31T02:39:36;11.35;;;5.78;;
58208;SDS011;44006;52.028;4.696;2023-05-31T02:42:01;11.30;;;5.70;;
58208;SDS011;44006;52.028;4.696;2023-05-31T02:44:27;11.63;;;5.50;;
58208;SDS011;44006;52.028;4.696;2023-05-31T02:46:52;10.25;;;5.22;;
58208;SDS011;44006;52.028;4.696;2023-05-31T02:49:17;11.32;;;5.60;;
58208;SDS011;44006;52.028;4.696;2023-05-31T02:51:42;10.20;;;5.70;;
58208;SDS011;44006;52.028;4.696;2023-05-31T02:54:08;10.32;;;5.30;;
58208;SDS011;44006;52.028;4.696;2023-05-31T02:56:33;9.77;;;5.37;;
58208;SDS011;44006;52.028;4.696;2023-05-31T02:58:58;10.20;;;5.47;;
58208;SDS011;44006;52.028;4.696;2023-05-31T03:01:23;9.80;;;5.43;;
58208;SDS011;44006;52.028;4.696;2023-05-31T03:03:48;8.70;;;4.90;;
58208;SDS011;44006;52.028;4.696;2023-05-31T03:06:13;8.15;;;5.25;;
58208;SDS011;44006;52.028;4.696;2023-05-31T03:08:41;11.10;;;5.35;;
58208;SDS011;44006;52.028;4.696;2023-05-31T03:11:07;11.75;;;5.75;;
58208;SDS011;44006;52.028;4.696;2023-05-31T03:13:32;8.03;;;5.53;;
58208;SDS011;44006;52.028;4.696;2023-05-31T03:15:57;11.15;;;5.22;;
58208;SDS011;44006;52.028;4.696;2023-05-31T03:18:22;10.25;;;5.32;;
58208;SDS011;44006;52.028;4.696;2023-05-31T03:20:48;9.73;;;5.30;;
58208;SDS011;44006;52.028;4.696;2023-05-31T03:23:13;9.37;;;4.93;;
58208;SDS011;44006;52.028;4.696;2023-05-31T03:25:38;10.63;;;5.53;;
58208;SDS011;44006;52.028;4.696;2023-05-31T03:28:03;12.30;;;5.53;;
58208;SDS011;44006;52.028;4.696;2023-05-31T03:30:29;9.02;;;4.88;;
58208;SDS011;44006;52.028;4.696;2023-05-31T03:32:54;8.80;;;5.10;;
58208;SDS011;44006;52.028;4.696;2023-05-31T03:35:19;10.10;;;4.95;;
58208;SDS011;44006;52.028;4.696;2023-05-31T03:37:45;10.82;;;5.15;;
58208;SDS011;44006;52.028;4.696;2023-05-31T03:40:10;8.45;;;4.90;;
58208;SDS011;44006;52.028;4.696;2023-05-31T03:42:35;8.98;;;5.50;;
58208;SDS011;44006;52.028;4.696;2023-05-31T03:45:01;7.43;;;5.15;;
58208;SDS011;44006;52.028;4.696;2023-05-31T03:47:26;9.15;;;5.28;;
58208;SDS011;44006;52.028;4.696;2023-05-31T03:49:51;11.83;;;5.60;;
58208;SDS011;44006;52.028;4.696;2023-05-31T03:52:17;10.50;;;5.68;;
58208;SDS011;44006;52.028;4.696;2023-05-31T03:54:42;11.70;;;6.32;;
58208;SDS011;44006;52.028;4.696;2023-05-31T03:57:07;9.75;;;5.78;;
58208;SDS011;44006;52.028;4.696;2023-05-31T03:59:33;9.80;;;6.07;;
58208;SDS011;44006;52.028;4.696;2023-05-31T04:01:59;11.35;;;5.53;;
58208;SDS011;44006;52.028;4.696;2023-05-31T04:04:24;12.85;;;6.10;;
58208;SDS011;44006;52.028;4.696;2023-05-31T04:06:50;11.23;;;6.35;;
58208;SDS011;44006;52.028;4.696;2023-05-31T04:09:16;10.60;;;6.32;;
58208;SDS011;44006;52.028;4.696;2023-05-31T04:11:41;9.27;;;5.25;;
58208;SDS011;44006;52.028;4.696;2023-05-31T04:14:06;11.50;;;5.70;;
58208;SDS011;44006;52.028;4.696;2023-05-31T04:16:31;10.95;;;6.43;;
58208;SDS011;44006;52.028;4.696;2023-05-31T04:18:57;10.63;;;5.82;;
58208;SDS011;44006;52.028;4.696;2023-05-31T04:21:22;10.60;;;6.07;;
58208;SDS011;44006;52.028;4.696;2023-05-31T04:23:47;10.18;;;6.53;;
58208;SDS011;44006;52.028;4.696;2023-05-31T04:26:12;11.48;;;6.38;;
58208;SDS011;44006;52.028;4.696;2023-05-31T04:28:41;11.18;;;6.30;;
58208;SDS011;44006;52.028;4.696;2023-05-31T04:31:07;14.20;;;6.70;;
58208;SDS011;44006;52.028;4.696;2023-05-31T04:33:32;15.15;;;7.40;;
58208;SDS011;44006;52.028;4.696;2023-05-31T04:35:58;11.13;;;6.20;;
58208;SDS011;44006;52.028;4.696;2023-05-31T04:38:24;12.35;;;6.40;;
58208;SDS011;44006;52.028;4.696;2023-05-31T04:40:52;10.65;;;6.00;;
58208;SDS011;44006;52.028;4.696;2023-05-31T04:43:19;13.10;;;6.70;;
58208;SDS011;44006;52.028;4.696;2023-05-31T04:45:45;12.65;;;7.78;;
58208;SDS011;44006;52.028;4.696;2023-05-31T04:48:12;12.35;;;6.80;;
58208;SDS011;44006;52.028;4.696;2023-05-31T04:50:37;13.70;;;7.50;;
58208;SDS011;44006;52.028;4.696;2023-05-31T04:53:02;13.35;;;7.13;;
58208;SDS011;44006;52.028;4.696;2023-05-31T04:55:28;13.02;;;7.18;;
58208;SDS011;44006;52.028;4.696;2023-05-31T04:57:53;15.32;;;7.55;;
58208;SDS011;44006;52.028;4.696;2023-05-31T05:00:18;14.50;;;7.40;;
58208;SDS011;44006;52.028;4.696;2023-05-31T05:02:44;15.38;;;6.95;;
58208;SDS011;44006;52.028;4.696;2023-05-31T05:05:10;12.23;;;7.30;;
58208;SDS011;44006;52.028;4.696;2023-05-31T05:07:36;16.20;;;8.10;;
58208;SDS011;44006;52.028;4.696;2023-05-31T05:10:01;15.32;;;8.27;;
58208;SDS011;44006;52.028;4.696;2023-05-31T05:12:28;13.70;;;8.70;;
58208;SDS011;44006;52.028;4.696;2023-05-31T05:14:54;13.20;;;7.90;;
58208;SDS011;44006;52.028;4.696;2023-05-31T05:17:19;14.32;;;8.32;;
58208;SDS011;44006;52.028;4.696;2023-05-31T05:19:46;18.38;;;8.40;;
58208;SDS011;44006;52.028;4.696;2023-05-31T05:22:11;15.35;;;8.80;;
58208;SDS011;44006;52.028;4.696;2023-05-31T05:24:37;17.75;;;9.50;;
58208;SDS011;44006;52.028;4.696;2023-05-31T05:27:02;14.90;;;8.75;;
58208;SDS011;44006;52.028;4.696;2023-05-31T05:29:27;15.13;;;8.85;;
58208;SDS011;44006;52.028;4.696;2023-05-31T05:31:53;17.35;;;9.02;;
58208;SDS011;44006;52.028;4.696;2023-05-31T05:34:18;16.03;;;8.63;;
58208;SDS011;44006;52.028;4.696;2023-05-31T05:36:45;18.83;;;8.80;;
58208;SDS011;44006;52.028;4.696;2023-05-31T05:39:10;15.82;;;8.82;;
58208;SDS011;44006;52.028;4.696;2023-05-31T05:41:36;15.30;;;9.02;;
58208;SDS011;44006;52.028;4.696;2023-05-31T05:44:01;14.73;;;9.02;;
58208;SDS011;44006;52.028;4.696;2023-05-31T05:46:27;13.27;;;8.38;;
58208;SDS011;44006;52.028;4.696;2023-05-31T05:48:54;15.48;;;8.73;;
58208;SDS011;44006;52.028;4.696;2023-05-31T05:51:19;17.27;;;9.10;;
58208;SDS011;44006;52.028;4.696;2023-05-31T05:53:44;14.05;;;9.07;;
58208;SDS011;44006;52.028;4.696;2023-05-31T05:56:09;16.30;;;9.35;;
58208;SDS011;44006;52.028;4.696;2023-05-31T05:58:36;20.52;;;9.48;;
58208;SDS011;44006;52.028;4.696;2023-05-31T06:01:01;16.42;;;9.00;;
58208;SDS011;44006;52.028;4.696;2023-05-31T06:03:27;17.75;;;9.45;;
58208;SDS011;44006;52.028;4.696;2023-05-31T06:05:52;15.93;;;8.95;;
58208;SDS011;44006;52.028;4.696;2023-05-31T06:08:18;15.30;;;9.18;;
58208;SDS011;44006;52.028;4.696;2023-05-31T06:10:43;18.02;;;9.50;;
58208;SDS011;44006;52.028;4.696;2023-05-31T06:13:08;18.00;;;9.32;;
58208;SDS011;44006;52.028;4.696;2023-05-31T06:15:33;16.00;;;9.98;;
58208;SDS011;44006;52.028;4.696;2023-05-31T06:17:59;19.08;;;9.25;;
58208;SDS011;44006;52.028;4.696;2023-05-31T06:20:25;16.52;;;9.63;;
58208;SDS011;44006;52.028;4.696;2023-05-31T06:22:51;14.82;;;8.88;;
58208;SDS011;44006;52.028;4.696;2023-05-31T06:25:16;14.85;;;9.00;;
58208;SDS011;44006;52.028;4.696;2023-05-31T06:27:42;14.45;;;9.85;;
58208;SDS011;44006;52.028;4.696;2023-05-31T06:30:08;15.88;;;9.10;;
58208;SDS011;44006;52.028;4.696;2023-05-31T06:32:35;14.05;;;8.95;;
58208;SDS011;44006;52.028;4.696;2023-05-31T06:35:00;16.23;;;9.20;;
58208;SDS011;44006;52.028;4.696;2023-05-31T06:37:25;17.47;;;9.30;;
58208;SDS011;44006;52.028;4.696;2023-05-31T06:39:50;15.75;;;8.65;;
58208;SDS011;44006;52.028;4.696;2023-05-31T06:42:16;16.30;;;9.77;;
58208;SDS011;44006;52.028;4.696;2023-05-31T06:44:42;17.30;;;9.00;;
58208;SDS011;44006;52.028;4.696;2023-05-31T06:47:08;14.45;;;8.80;;
58208;SDS011;44006;52.028;4.696;2023-05-31T06:49:33;16.67;;;9.10;;
58208;SDS011;44006;52.028;4.696;2023-05-31T06:51:58;15.13;;;8.98;;
58208;SDS011;44006;52.028;4.696;2023-05-31T06:54:24;15.63;;;9.55;;
58208;SDS011;44006;52.028;4.696;2023-05-31T06:56:49;16.52;;;9.05;;
58208;SDS011;44006;52.028;4.696;2023-05-31T06:59:14;14.60;;;8.63;;
58208;SDS011;44006;52.028;4.696;2023-05-31T07:01:40;16.07;;;9.30;;
58208;SDS011;44006;52.028;4.696;2023-05-31T07:04:05;17.40;;;9.32;;
58208;SDS011;44006;52.028;4.696;2023-05-31T07:06:30;15.65;;;9.05;;
58208;SDS011;44006;52.028;4.696;2023-05-31T07:08:56;16.00;;;8.98;;
58208;SDS011;44006;52.028;4.696;2023-05-31T07:11:22;15.63;;;8.80;;
58208;SDS011;44006;52.028;4.696;2023-05-31T07:13:47;13.43;;;8.67;;
58208;SDS011;44006;52.028;4.696;2023-05-31T07:16:12;16.38;;;8.15;;
58208;SDS011;44006;52.028;4.696;2023-05-31T07:18:37;15.90;;;9.17;;
58208;SDS011;44006;52.028;4.696;2023-05-31T07:21:03;12.35;;;8.07;;
58208;SDS011;44006;52.028;4.696;2023-05-31T07:23:28;12.70;;;8.48;;
58208;SDS011;44006;52.028;4.696;2023-05-31T07:25:53;13.10;;;8.17;;
58208;SDS011;44006;52.028;4.696;2023-05-31T07:28:18;11.80;;;8.13;;
58208;SDS011;44006;52.028;4.696;2023-05-31T07:30:44;13.27;;;8.47;;
58208;SDS011;44006;52.028;4.696;2023-05-31T07:33:09;15.18;;;8.48;;
58208;SDS011;44006;52.028;4.696;2023-05-31T07:35:34;12.63;;;8.10;;
58208;SDS011;44006;52.028;4.696;2023-05-31T07:37:59;16.63;;;7.97;;
58208;SDS011;44006;52.028;4.696;2023-05-31T07:40:25;19.20;;;9.07;;
58208;SDS011;44006;52.028;4.696;2023-05-31T07:42:52;15.02;;;8.93;;
58208;SDS011;44006;52.028;4.696;2023-05-31T07:45:18;18.80;;;9.05;;
58208;SDS011;44006;52.028;4.696;2023-05-31T07:47:43;13.43;;;8.23;;
58208;SDS011;44006;52.028;4.696;2023-05-31T07:50:08;14.23;;;7.97;;
58208;SDS011;44006;52.028;4.696;2023-05-31T07:52:33;12.70;;;7.80;;
58208;SDS011;44006;52.028;4.696;2023-05-31T07:54:59;15.00;;;8.55;;
58208;SDS011;44006;52.028;4.696;2023-05-31T07:57:24;13.60;;;7.97;;
58208;SDS011;44006;52.028;4.696;2023-05-31T07:59:50;14.70;;;8.57;;
58208;SDS011;44006;52.028;4.696;2023-05-31T08:02:18;13.30;;;8.15;;
58208;SDS011;44006;52.028;4.696;2023-05-31T08:04:43;13.07;;;7.95;;
58208;SDS011;44006;52.028;4.696;2023-05-31T08:07:08;15.18;;;7.85;;
58208;SDS011;44006;52.028;4.696;2023-05-31T08:09:34;11.82;;;7.63;;
58208;SDS011;44006;52.028;4.696;2023-05-31T08:11:59;14.95;;;8.68;;
58208;SDS011;44006;52.028;4.696;2023-05-31T08:14:24;17.70;;;8.07;;
58208;SDS011;44006;52.028;4.696;2023-05-31T08:16:49;13.03;;;8.13;;
58208;SDS011;44006;52.028;4.696;2023-05-31T08:19:15;12.77;;;7.72;;
58208;SDS011;44006;52.028;4.696;2023-05-31T08:21:41;11.32;;;7.47;;
58208;SDS011;44006;52.028;4.696;2023-05-31T08:24:07;12.02;;;7.50;;
58208;SDS011;44006;52.028;4.696;2023-05-31T08:26:32;13.43;;;8.85;;
58208;SDS011;44006;52.028;4.696;2023-05-31T08:28:58;13.98;;;7.70;;
58208;SDS011;44006;52.028;4.696;2023-05-31T08:31:23;15.48;;;7.88;;
58208;SDS011;44006;52.028;4.696;2023-05-31T08:33:53;13.68;;;7.68;;
58208;SDS011;44006;52.028;4.696;2023-05-31T08:36:19;10.85;;;7.03;;
58208;SDS011;44006;52.028;4.696;2023-05-31T08:38:44;15.77;;;7.47;;
58208;SDS011;44006;52.028;4.696;2023-05-31T08:41:09;16.05;;;7.88;;
58208;SDS011;44006;52.028;4.696;2023-05-31T08:43:35;12.27;;;7.22;;
58208;SDS011;44006;52.028;4.696;2023-05-31T08:46:00;13.27;;;7.20;;
58208;SDS011;44006;52.028;4.696;2023-05-31T08:48:42;13.45;;;8.27;;
58208;SDS011;44006;52.028;4.696;2023-05-31T08:51:08;14.38;;;6.80;;
58208;SDS011;44006;52.028;4.696;2023-05-31T08:53:33;10.73;;;7.15;;
58208;SDS011;44006;52.028;4.696;2023-05-31T08:55:59;11.40;;;6.57;;
58208;SDS011;44006;52.028;4.696;2023-05-31T08:58:26;15.50;;;7.13;;
58208;SDS011;44006;52.028;4.696;2023-05-31T09:00:53;13.40;;;7.47;;
58208;SDS011;44006;52.028;4.696;2023-05-31T09:03:18;11.98;;;6.97;;
58208;SDS011;44006;52.028;4.696;2023-05-31T09:05:43;13.65;;;7.40;;
58208;SDS011;44006;52.028;4.696;2023-05-31T09:08:09;12.97;;;7.40;;
58208;SDS011;44006;52.028;4.696;2023-05-31T09:10:34;13.07;;;7.60;;
58208;SDS011;44006;52.028;4.696;2023-05-31T09:13:00;12.38;;;7.63;;
58208;SDS011;44006;52.028;4.696;2023-05-31T09:15:25;11.35;;;7.40;;
58208;SDS011;44006;52.028;4.696;2023-05-31T09:17:50;14.18;;;7.72;;
58208;SDS011;44006;52.028;4.696;2023-05-31T09:20:17;13.75;;;7.70;;
58208;SDS011;44006;52.028;4.696;2023-05-31T09:22:46;14.02;;;8.13;;
58208;SDS011;44006;52.028;4.696;2023-05-31T09:25:12;14.70;;;7.63;;
58208;SDS011;44006;52.028;4.696;2023-05-31T09:27:37;15.23;;;7.93;;
58208;SDS011;44006;52.028;4.696;2023-05-31T09:30:03;12.63;;;7.72;;
58208;SDS011;44006;52.028;4.696;2023-05-31T09:32:29;13.20;;;7.10;;
58208;SDS011;44006;52.028;4.696;2023-05-31T09:34:57;12.23;;;7.70;;
58208;SDS011;44006;52.028;4.696;2023-05-31T09:37:34;10.48;;;6.50;;
58208;SDS011;44006;52.028;4.696;2023-05-31T09:39:59;12.03;;;7.40;;
58208;SDS011;44006;52.028;4.696;2023-05-31T09:42:24;15.13;;;8.02;;
58208;SDS011;44006;52.028;4.696;2023-05-31T09:44:50;13.88;;;7.57;;
58208;SDS011;44006;52.028;4.696;2023-05-31T09:47:16;11.00;;;7.50;;
58208;SDS011;44006;52.028;4.696;2023-05-31T09:49:44;11.52;;;6.75;;
58208;SDS011;44006;52.028;4.696;2023-05-31T09:52:12;14.32;;;7.78;;
58208;SDS011;44006;52.028;4.696;2023-05-31T09:54:38;13.57;;;7.57;;
58208;SDS011;44006;52.028;4.696;2023-05-31T09:57:04;15.02;;;7.65;;
58208;SDS011;44006;52.028;4.696;2023-05-31T09:59:33;12.27;;;7.22;;
58208;SDS011;44006;52.028;4.696;2023-05-31T10:01:59;13.20;;;7.32;;
58208;SDS011;44006;52.028;4.696;2023-05-31T10:04:24;11.73;;;7.32;;
58208;SDS011;44006;52.028;4.696;2023-05-31T10:06:50;12.68;;;7.63;;
58208;SDS011;44006;52.028;4.696;2023-05-31T10:09:15;12.52;;;7.18;;
58208;SDS011;44006;52.028;4.696;2023-05-31T10:11:43;13.45;;;7.25;;
58208;SDS011;44006;52.028;4.696;2023-05-31T10:14:14;12.65;;;7.32;;
58208;SDS011;44006;52.028;4.696;2023-05-31T10:19:08;14.00;;;7.07;;
58208;SDS011;44006;52.028;4.696;2023-05-31T10:21:35;13.07;;;7.13;;
58208;SDS011;44006;52.028;4.696;2023-05-31T10:24:02;14.05;;;6.32;;
58208;SDS011;44006;52.028;4.696;2023-05-31T10:29:16;11.80;;;7.20;;
58208;SDS011;44006;52.028;4.696;2023-05-31T10:31:51;12.13;;;6.85;;
58208;SDS011;44006;52.028;4.696;2023-05-31T10:36:45;12.60;;;7.05;;
58208;SDS011;44006;52.028;4.696;2023-05-31T10:39:15;11.82;;;6.97;;
58208;SDS011;44006;52.028;4.696;2023-05-31T10:41:44;14.20;;;6.97;;
58208;SDS011;44006;52.028;4.696;2023-05-31T10:44:17;10.75;;;6.60;;
58208;SDS011;44006;52.028;4.696;2023-05-31T10:46:44;12.63;;;6.45;;
58208;SDS011;44006;52.028;4.696;2023-05-31T10:49:10;10.65;;;6.47;;
58208;SDS011;44006;52.028;4.696;2023-05-31T10:51:40;11.30;;;6.32;;
58208;SDS011;44006;52.028;4.696;2023-05-31T10:54:05;11.48;;;7.35;;
58208;SDS011;44006;52.028;4.696;2023-05-31T10:56:31;13.93;;;6.82;;
58208;SDS011;44006;52.028;4.696;2023-05-31T10:58:56;12.48;;;6.20;;
58208;SDS011;44006;52.028;4.696;2023-05-31T11:01:21;13.57;;;6.37;;
58208;SDS011;44006;52.028;4.696;2023-05-31T11:03:51;15.23;;;7.13;;
58208;SDS011;44006;52.028;4.696;2023-05-31T11:06:19;10.90;;;6.43;;
58208;SDS011;44006;52.028;4.696;2023-05-31T11:08:57;12.90;;;7.38;;
58208;SDS011;44006;52.028;4.696;2023-05-31T11:13:58;11.40;;;6.40;;
58208;SDS011;44006;52.028;4.696;2023-05-31T11:16:24;9.98;;;6.43;;
58208;SDS011;44006;52.028;4.696;2023-05-31T11:18:57;10.90;;;6.63;;
58208;SDS011;44006;52.028;4.696;2023-05-31T11:24:10;11.80;;;6.57;;
58208;SDS011;44006;52.028;4.696;2023-05-31T11:26:47;13.82;;;7.00;;
58208;SDS011;44006;52.028;4.696;2023-05-31T11:29:16;11.90;;;6.38;;
58208;SDS011;44006;52.028;4.696;2023-05-31T11:34:24;11.23;;;6.78;;
58208;SDS011;44006;52.028;4.696;2023-05-31T11:36:50;14.95;;;6.53;;
58208;SDS011;44006;52.028;4.696;2023-05-31T11:39:19;12.95;;;6.93;;
58208;SDS011;44006;52.028;4.696;2023-05-31T11:41:44;10.07;;;6.03;;
58208;SDS011;44006;52.028;4.696;2023-05-31T11:44:10;13.68;;;6.10;;
58208;SDS011;44006;52.028;4.696;2023-05-31T11:46:36;15.05;;;6.30;;
58208;SDS011;44006;52.028;4.696;2023-05-31T11:49:04;13.40;;;6.57;;
58208;SDS011;44006;52.028;4.696;2023-05-31T11:51:31;12.70;;;5.45;;
58208;SDS011;44006;52.028;4.696;2023-05-31T11:53:56;19.23;;;6.32;;
58208;SDS011;44006;52.028;4.696;2023-05-31T11:56:31;12.57;;;5.85;;
58208;SDS011;44006;52.028;4.696;2023-05-31T11:59:01;11.82;;;5.97;;
58208;SDS011;44006;52.028;4.696;2023-05-31T12:01:26;13.65;;;5.97;;
58208;SDS011;44006;52.028;4.696;2023-05-31T12:03:58;11.90;;;6.00;;
58208;SDS011;44006;52.028;4.696;2023-05-31T12:06:24;11.68;;;5.47;;
58208;SDS011;44006;52.028;4.696;2023-05-31T12:08:51;12.85;;;5.68;;
58208;SDS011;44006;52.028;4.696;2023-05-31T12:11:16;9.93;;;5.43;;
58208;SDS011;44006;52.028;4.696;2023-05-31T12:13:41;11.87;;;6.47;;
58208;SDS011;44006;52.028;4.696;2023-05-31T12:16:07;11.20;;;5.90;;
58208;SDS011;44006;52.028;4.696;2023-05-31T12:18:32;10.83;;;5.70;;
58208;SDS011;44006;52.028;4.696;2023-05-31T12:21:03;11.95;;;5.60;;
58208;SDS011;44006;52.028;4.696;2023-05-31T12:23:28;14.10;;;5.70;;
58208;SDS011;44006;52.028;4.696;2023-05-31T12:25:57;9.45;;;5.40;;
58208;SDS011;44006;52.028;4.696;2023-05-31T12:28:22;11.35;;;5.47;;
58208;SDS011;44006;52.028;4.696;2023-05-31T12:30:48;14.53;;;5.63;;
58208;SDS011;44006;52.028;4.696;2023-05-31T12:33:13;9.57;;;5.72;;
58208;SDS011;44006;52.028;4.696;2023-05-31T12:35:39;11.48;;;5.97;;
58208;SDS011;44006;52.028;4.696;2023-05-31T12:38:04;12.63;;;5.68;;
58208;SDS011;44006;52.028;4.696;2023-05-31T12:40:30;11.32;;;5.75;;
58208;SDS011;44006;52.028;4.696;2023-05-31T12:42:59;11.10;;;6.25;;
58208;SDS011;44006;52.028;4.696;2023-05-31T12:45:25;11.30;;;6.07;;
58208;SDS011;44006;52.028;4.696;2023-05-31T12:47:55;11.03;;;5.43;;
58208;SDS011;44006;52.028;4.696;2023-05-31T12:52:53;10.45;;;5.20;;
58208;SDS011;44006;52.028;4.696;2023-05-31T12:55:19;10.82;;;5.35;;
58208;SDS011;44006;52.028;4.696;2023-05-31T12:57:44;9.88;;;4.53;;
58208;SDS011;44006;52.028;4.696;2023-05-31T13:00:10;11.23;;;4.80;;
58208;SDS011;44006;52.028;4.696;2023-05-31T13:02:39;12.02;;;4.22;;
58208;SDS011;44006;52.028;4.696;2023-05-31T13:05:05;9.48;;;4.57;;
58208;SDS011;44006;52.028;4.696;2023-05-31T13:07:30;9.35;;;4.90;;
58208;SDS011;44006;52.028;4.696;2023-05-31T13:09:56;12.93;;;4.53;;
58208;SDS011;44006;52.028;4.696;2023-05-31T13:12:21;10.23;;;4.60;;
58208;SDS011;44006;52.028;4.696;2023-05-31T13:14:46;9.47;;;4.93;;
58208;SDS011;44006;52.028;4.696;2023-05-31T13:17:11;9.68;;;4.45;;
58208;SDS011;44006;52.028;4.696;2023-05-31T13:19:37;13.60;;;5.80;;
58208;SDS011;44006;52.028;4.696;2023-05-31T13:22:02;10.50;;;5.70;;
58208;SDS011;44006;52.028;4.696;2023-05-31T13:24:27;10.82;;;5.03;;
58208;SDS011;44006;52.028;4.696;2023-05-31T13:26:53;9.27;;;4.00;;
58208;SDS011;44006;52.028;4.696;2023-05-31T13:29:18;8.70;;;4.13;;
58208;SDS011;44006;52.028;4.696;2023-05-31T13:31:43;11.33;;;4.37;;
58208;SDS011;44006;52.028;4.696;2023-05-31T13:34:09;8.70;;;4.37;;
58208;SDS011;44006;52.028;4.696;2023-05-31T13:36:34;9.40;;;4.90;;
58208;SDS011;44006;52.028;4.696;2023-05-31T13:38:59;12.82;;;4.15;;
58208;SDS011;44006;52.028;4.696;2023-05-31T13:41:24;12.00;;;5.43;;
58208;SDS011;44006;52.028;4.696;2023-05-31T13:43:50;13.20;;;5.00;;
58208;SDS011;44006;52.028;4.696;2023-05-31T13:46:15;13.60;;;5.10;;
58208;SDS011;44006;52.028;4.696;2023-05-31T13:48:41;8.45;;;4.43;;
58208;SDS011;44006;52.028;4.696;2023-05-31T13:51:08;10.75;;;4.57;;
58208;SDS011;44006;52.028;4.696;2023-05-31T13:53:33;9.63;;;4.53;;
58208;SDS011;44006;52.028;4.696;2023-05-31T13:55:58;7.80;;;4.80;;
58208;SDS011;44006;52.028;4.696;2023-05-31T13:58:23;13.97;;;6.03;;
58208;SDS011;44006;52.028;4.696;2023-05-31T14:00:49;12.90;;;5.07;;
58208;SDS011;44006;52.028;4.696;2023-05-31T14:03:15;9.50;;;4.80;;
58208;SDS011;44006;52.028;4.696;2023-05-31T14:05:41;9.90;;;5.10;;
58208;SDS011;44006;52.028;4.696;2023-05-31T14:08:08;9.85;;;4.65;;
58208;SDS011;44006;52.028;4.696;2023-05-31T14:10:33;12.07;;;5.40;;
58208;SDS011;44006;52.028;4.696;2023-05-31T14:12:58;10.13;;;5.27;;
58208;SDS011;44006;52.028;4.696;2023-05-31T14:15:24;10.43;;;5.00;;
58208;SDS011;44006;52.028;4.696;2023-05-31T14:17:49;9.73;;;4.47;;
58208;SDS011;44006;52.028;4.696;2023-05-31T14:20:14;11.33;;;4.87;;
58208;SDS011;44006;52.028;4.696;2023-05-31T14:22:39;9.48;;;4.88;;
58208;SDS011;44006;52.028;4.696;2023-05-31T14:25:05;10.20;;;4.93;;
58208;SDS011;44006;52.028;4.696;2023-05-31T14:27:30;12.02;;;4.80;;
58208;SDS011;44006;52.028;4.696;2023-05-31T14:29:56;9.07;;;4.77;;
58208;SDS011;44006;52.028;4.696;2023-05-31T14:32:21;9.63;;;4.90;;
58208;SDS011;44006;52.028;4.696;2023-05-31T14:34:46;11.37;;;5.10;;
58208;SDS011;44006;52.028;4.696;2023-05-31T14:37:12;12.73;;;4.83;;
58208;SDS011;44006;52.028;4.696;2023-05-31T14:39:37;11.88;;;4.50;;
58208;SDS011;44006;52.028;4.696;2023-05-31T14:42:03;8.07;;;4.10;;
58208;SDS011;44006;52.028;4.696;2023-05-31T14:44:29;11.05;;;5.70;;
58208;SDS011;44006;52.028;4.696;2023-05-31T14:46:54;8.95;;;4.70;;
58208;SDS011;44006;52.028;4.696;2023-05-31T14:49:22;12.27;;;5.43;;
58208;SDS011;44006;52.028;4.696;2023-05-31T14:51:48;9.57;;;5.13;;
58208;SDS011;44006;52.028;4.696;2023-05-31T14:54:14;11.95;;;5.97;;
58208;SDS011;44006;52.028;4.696;2023-05-31T14:56:39;11.00;;;6.00;;